createdAt,value
2018-04-11T00:00:44.096Z,0
2018-04-11T00:01:44.730Z,0
2018-04-11T00:02:59.320Z,0
2018-04-11T00:03:44.676Z,0
2018-04-11T00:04:44.177Z,0
2018-04-11T00:05:44.724Z,0
2018-04-11T00:06:59.401Z,0
2018-04-11T00:07:59.424Z,0
2018-04-11T00:08:44.267Z,0
2018-04-11T00:09:44.814Z,0
2018-04-11T00:10:44.835Z,0
2018-04-11T00:11:44.859Z,0
2018-04-11T00:12:44.883Z,0
2018-04-11T00:13:44.901Z,0
2018-04-11T00:14:59.582Z,0
2018-04-11T00:15:44.429Z,0
2018-04-11T00:16:44.983Z,0
2018-04-11T00:17:59.391Z,0
2018-04-11T00:18:45.018Z,0
2018-04-11T00:19:59.702Z,0
2018-04-11T00:20:59.719Z,0
2018-04-11T00:21:45.081Z,0
2018-04-11T00:22:45.107Z,0
2018-04-11T00:24:14.444Z,0
2018-04-11T00:24:44.891Z,0
2018-04-11T00:25:59.571Z,0
2018-04-11T00:26:44.938Z,0
2018-04-11T00:27:59.884Z,0
2018-04-11T00:28:45.237Z,0
2018-04-11T00:29:44.995Z,0
2018-04-11T00:30:45.279Z,0
2018-04-11T00:31:59.965Z,0
2018-04-11T00:32:45.321Z,0
2018-04-11T00:33:45.348Z,0
2018-04-11T00:34:45.117Z,0
2018-04-11T00:36:00.046Z,0
2018-04-11T00:38:00.093Z,0
2018-04-11T00:38:59.853Z,0
2018-04-11T00:40:45.495Z,0
2018-04-11T00:41:45.262Z,0
2018-04-11T00:42:45.537Z,0
2018-04-11T00:43:45.304Z,0
2018-04-11T00:44:45.588Z,0
2018-04-11T00:45:45.607Z,0
2018-04-11T00:46:45.380Z,0
2018-04-11T00:47:45.772Z,0
2018-04-11T00:48:45.521Z,0
2018-04-11T00:49:45.707Z,0
2018-04-11T00:50:45.720Z,0
2018-04-11T00:51:45.241Z,0
2018-04-11T00:52:45.764Z,0
2018-04-11T00:53:45.793Z,0
2018-04-11T00:54:45.606Z,0
2018-04-11T00:55:45.838Z,0
2018-04-11T00:56:45.853Z,0
2018-04-11T00:57:45.877Z,0
2018-04-11T00:58:45.635Z,0
2018-04-11T00:59:45.910Z,0
2018-04-11T01:00:45.944Z,0
2018-04-11T01:01:45.438Z,0
2018-04-11T01:02:45.724Z,0
2018-04-11T01:03:45.748Z,0
2018-04-11T01:05:00.732Z,0
2018-04-11T01:05:45.785Z,0
2018-04-11T01:06:45.806Z,0
2018-04-11T01:07:45.823Z,0
2018-04-11T01:08:45.853Z,0
2018-04-11T01:11:00.557Z,0
2018-04-11T01:11:45.926Z,0
2018-04-11T01:13:00.950Z,0
2018-04-11T01:13:46.225Z,0
2018-04-11T01:15:00.639Z,0
2018-04-11T01:16:00.403Z,0
2018-04-11T01:17:00.947Z,0
2018-04-11T01:18:00.704Z,0
2018-04-11T01:18:46.336Z,0
2018-04-11T01:19:46.361Z,0
2018-04-11T01:20:46.373Z,0
2018-04-11T01:21:46.141Z,0
2018-04-11T01:22:46.432Z,0
2018-04-11T01:23:45.924Z,0
2018-04-11T01:25:01.133Z,0
2018-04-11T01:25:46.487Z,0
2018-04-11T01:27:01.171Z,0
2018-04-11T01:27:46.009Z,0
2018-04-11T01:28:46.647Z,0
2018-04-11T01:29:46.569Z,0
2018-04-11T01:30:46.179Z,0
2018-04-11T01:31:46.355Z,0
2018-04-11T01:33:01.303Z,0
2018-04-11T01:33:46.248Z,0
2018-04-11T01:35:46.701Z,0
2018-04-11T01:36:46.722Z,0
2018-04-11T01:37:46.746Z,0
2018-04-11T01:38:46.765Z,0
2018-04-11T01:39:46.315Z,0
2018-04-11T01:40:46.813Z,0
2018-04-11T01:41:46.830Z,0
2018-04-11T01:43:01.510Z,0
2018-04-11T01:43:46.875Z,0
2018-04-11T01:44:46.640Z,0
2018-04-11T01:45:46.662Z,0
2018-04-11T01:46:46.938Z,0
2018-04-11T01:47:46.452Z,0
2018-04-11T01:49:01.648Z,0
2018-04-11T01:50:01.677Z,0
2018-04-11T01:50:47.038Z,0
2018-04-11T01:51:46.535Z,0
2018-04-11T01:52:46.819Z,0
2018-04-11T01:53:47.095Z,0
2018-04-11T01:54:47.169Z,0
2018-04-11T01:55:46.878Z,0
2018-04-11T01:56:46.902Z,0
2018-04-11T01:58:01.321Z,0
2018-04-11T01:59:01.606Z,0
2018-04-11T01:59:46.969Z,0
2018-04-11T02:00:47.255Z,0
2018-04-11T02:01:47.270Z,0
2018-04-11T02:03:01.953Z,0
2018-04-11T02:03:47.318Z,0
2018-04-11T02:04:47.079Z,0
2018-04-11T02:05:47.098Z,0
2018-04-11T02:06:47.125Z,0
2018-04-11T02:07:47.191Z,0
2018-04-11T02:08:47.430Z,0
2018-04-11T02:09:47.231Z,0
2018-04-11T02:10:47.470Z,0
2018-04-11T02:11:47.228Z,0
2018-04-11T02:14:16.848Z,0
2018-04-11T02:14:47.554Z,0
2018-04-11T02:15:47.366Z,0
2018-04-11T02:16:47.602Z,0
2018-04-11T02:18:02.280Z,0
2018-04-11T02:19:02.309Z,0
2018-04-11T02:19:47.143Z,0
2018-04-11T02:20:47.422Z,0
2018-04-11T02:22:02.365Z,0
2018-04-11T02:22:47.473Z,0
2018-04-11T02:23:47.282Z,0
2018-04-11T02:24:47.511Z,0
2018-04-11T02:25:47.790Z,0
2018-04-11T02:26:47.562Z,0
2018-04-11T02:27:47.836Z,0
2018-04-11T02:28:47.863Z,0
2018-04-11T02:29:47.879Z,0
2018-04-11T02:30:47.653Z,0
2018-04-11T02:31:47.942Z,0
2018-04-11T02:32:47.957Z,0
2018-04-11T02:33:47.457Z,0
2018-04-11T02:36:02.675Z,0
2018-04-11T02:37:02.690Z,0
2018-04-11T02:37:48.055Z,0
2018-04-11T02:38:48.073Z,0
2018-04-11T02:40:02.502Z,0
2018-04-11T02:40:47.860Z,0
2018-04-11T02:41:47.637Z,0
2018-04-11T02:42:47.667Z,0
2018-04-11T02:43:48.192Z,0
2018-04-11T02:44:48.038Z,0
2018-04-11T02:46:17.543Z,0
2018-04-11T02:46:48.250Z,0
2018-04-11T02:47:48.024Z,0
2018-04-11T02:48:48.305Z,0
2018-04-11T02:50:02.450Z,0
2018-04-11T02:50:48.331Z,0
2018-04-11T02:51:48.109Z,0
2018-04-11T02:53:03.031Z,0
2018-04-11T02:53:48.160Z,0
2018-04-11T02:54:48.434Z,0
2018-04-11T02:55:48.442Z,0
2018-04-11T02:57:48.488Z,0
2018-04-11T02:59:48.273Z,0
2018-04-11T03:00:48.297Z,0
2018-04-11T03:02:03.231Z,0
2018-04-11T03:03:03.255Z,0
2018-04-11T03:03:48.616Z,0
2018-04-11T03:04:48.635Z,0
2018-04-11T03:05:48.400Z,0
2018-04-11T03:06:48.676Z,0
2018-04-11T03:07:48.699Z,0
2018-04-11T03:08:48.733Z,0
2018-04-11T03:10:03.404Z,0
2018-04-11T03:10:48.766Z,0
2018-04-11T03:11:48.522Z,0
2018-04-11T03:12:48.816Z,0
2018-04-11T03:13:48.822Z,0
2018-04-11T03:14:48.075Z,0
2018-04-11T03:16:03.266Z,0
2018-04-11T03:16:48.110Z,0
2018-04-11T03:18:03.309Z,0
2018-04-11T03:18:48.931Z,0
2018-04-11T03:20:03.362Z,0
2018-04-11T03:20:48.979Z,0
2018-04-11T03:21:49.009Z,0
2018-04-11T03:22:49.017Z,0
2018-04-11T03:23:48.782Z,0
2018-04-11T03:24:49.065Z,0
2018-04-11T03:25:48.820Z,0
2018-04-11T03:26:49.099Z,0
2018-04-11T03:27:49.119Z,0
2018-04-11T03:28:49.142Z,0
2018-04-11T03:30:49.302Z,0
2018-04-11T03:31:48.979Z,0
2018-04-11T03:33:03.884Z,0
2018-04-11T03:34:03.907Z,0
2018-04-11T03:34:49.007Z,0
2018-04-11T03:35:49.291Z,0
2018-04-11T03:36:48.791Z,0
2018-04-11T03:37:49.329Z,0
2018-04-11T03:38:49.102Z,0
2018-04-11T03:39:49.114Z,0
2018-04-11T03:40:49.404Z,0
2018-04-11T03:41:49.269Z,0
2018-04-11T03:42:49.204Z,0
2018-04-11T03:43:49.461Z,0
2018-04-11T03:44:49.248Z,0
2018-04-11T03:45:48.983Z,0
2018-04-11T03:47:04.186Z,0
2018-04-11T03:47:49.546Z,0
2018-04-11T03:49:18.910Z,0
2018-04-11T03:49:49.071Z,0
2018-04-11T03:50:49.610Z,0
2018-04-11T03:51:49.373Z,0
2018-04-11T03:52:49.389Z,0
2018-04-11T03:54:04.339Z,0
2018-04-11T03:54:49.233Z,0
2018-04-11T03:55:49.453Z,0
2018-04-11T03:56:49.477Z,0
2018-04-11T03:58:49.520Z,0
2018-04-11T03:59:49.283Z,0
2018-04-11T04:00:49.577Z,0
2018-04-11T04:01:50.056Z,0
2018-04-11T04:02:49.604Z,0
2018-04-11T04:03:49.636Z,0
2018-04-11T04:05:04.560Z,0
2018-04-11T04:05:49.923Z,0
2018-04-11T04:06:49.946Z,0
2018-04-11T04:07:50.198Z,0
2018-04-11T04:08:49.988Z,0
2018-04-11T04:10:04.148Z,0
2018-04-11T04:10:50.029Z,0
2018-04-11T04:12:04.449Z,0
2018-04-11T04:12:50.074Z,0
2018-04-11T04:14:04.765Z,0
2018-04-11T04:15:04.258Z,0
2018-04-11T04:15:50.151Z,0
2018-04-11T04:16:49.899Z,0
2018-04-11T04:17:50.284Z,0
2018-04-11T04:18:49.942Z,0
2018-04-11T04:19:49.798Z,0
2018-04-11T04:21:04.900Z,0
2018-04-11T04:21:50.275Z,0
2018-04-11T04:22:50.289Z,0
2018-04-11T04:23:50.044Z,0
2018-04-11T04:24:49.805Z,0
2018-04-11T04:25:50.354Z,0
2018-04-11T04:27:04.767Z,0
2018-04-11T04:27:50.390Z,0
2018-04-11T04:29:50.178Z,0
2018-04-11T04:30:49.684Z,0
2018-04-11T04:31:50.220Z,0
2018-04-11T04:32:50.500Z,0
2018-04-11T04:33:50.254Z,0
2018-04-11T04:35:04.935Z,0
2018-04-11T04:35:50.576Z,0
2018-04-11T04:37:05.237Z,0
2018-04-11T04:38:50.618Z,0
2018-04-11T04:39:50.741Z,0
2018-04-11T04:41:05.062Z,0
2018-04-11T04:41:50.430Z,0
2018-04-11T04:42:50.705Z,0
2018-04-11T04:44:05.386Z,0
2018-04-11T04:44:50.749Z,0
2018-04-11T04:45:50.506Z,5
2018-04-11T04:47:04.928Z,5
2018-04-11T04:48:50.574Z,5
2018-04-11T04:49:50.858Z,5
2018-04-11T04:51:05.531Z,5
2018-04-11T04:51:50.896Z,5
2018-04-11T04:53:20.230Z,10
2018-04-11T04:53:50.425Z,10
2018-04-11T04:54:50.959Z,10
2018-04-11T04:55:50.723Z,10
2018-04-11T04:56:51.005Z,10
2018-04-11T04:57:51.027Z,15
2018-04-11T04:58:50.829Z,15
2018-04-11T05:00:05.461Z,15
2018-04-11T05:00:50.826Z,10
2018-04-11T05:01:51.105Z,10
2018-04-11T05:02:50.867Z,10
2018-04-11T05:04:05.809Z,10
2018-04-11T05:04:50.660Z,10
2018-04-11T05:05:51.195Z,10
2018-04-11T05:06:50.949Z,10
2018-04-11T05:07:51.336Z,10
2018-04-11T05:09:20.568Z,10
2018-04-11T05:10:05.929Z,10
2018-04-11T05:11:51.097Z,15
2018-04-11T05:12:51.077Z,15
2018-04-11T05:13:50.850Z,15
2018-04-11T05:14:51.390Z,15
2018-04-11T05:15:50.881Z,15
2018-04-11T05:16:51.420Z,10
2018-04-11T05:17:51.437Z,10
2018-04-11T05:18:51.208Z,10
2018-04-11T05:20:51.253Z,10
2018-04-11T05:22:05.985Z,10
2018-04-11T05:23:05.945Z,10
2018-04-11T05:24:20.886Z,10
2018-04-11T05:24:51.342Z,10
2018-04-11T05:25:51.608Z,10
2018-04-11T05:26:51.374Z,15
2018-04-11T05:27:51.396Z,15
2018-04-11T05:28:51.677Z,15
2018-04-11T05:29:51.177Z,15
2018-04-11T05:30:51.719Z,15
2018-04-11T05:31:51.738Z,15
2018-04-11T05:32:51.644Z,15
2018-04-11T05:34:06.444Z,15
2018-04-11T05:34:51.799Z,15
2018-04-11T05:35:51.831Z,20
2018-04-11T05:36:51.857Z,20
2018-04-11T05:37:51.883Z,30
2018-04-11T05:38:51.631Z,25
2018-04-11T05:40:06.565Z,30
2018-04-11T05:40:51.937Z,30
2018-04-11T05:42:51.722Z,45
2018-04-11T05:43:51.995Z,60
2018-04-11T05:44:51.754Z,70
2018-04-11T05:45:52.037Z,85
2018-04-11T05:46:51.829Z,90
2018-04-11T05:48:52.105Z,95
2018-04-11T05:49:51.862Z,95
2018-04-11T05:50:51.889Z,95
2018-04-11T05:51:51.903Z,90
2018-04-11T05:52:52.183Z,85
2018-04-11T05:53:52.203Z,80
2018-04-11T05:54:52.231Z,80
2018-04-11T05:56:21.309Z,80
2018-04-11T05:57:06.671Z,80
2018-04-11T05:57:52.302Z,85
2018-04-11T05:58:52.110Z,100
2018-04-11T05:59:51.820Z,115
2018-04-11T06:00:52.132Z,95
2018-04-11T06:01:51.865Z,95
2018-04-11T06:03:52.438Z,105
2018-04-11T06:05:06.845Z,110
2018-04-11T06:05:51.971Z,115
2018-04-11T06:06:52.489Z,115
2018-04-11T06:07:52.521Z,125
2018-04-11T06:08:52.273Z,140
2018-04-11T06:09:52.559Z,145
2018-04-11T06:10:52.579Z,150
2018-04-11T06:12:21.916Z,150
2018-04-11T06:13:52.383Z,170
2018-04-11T06:15:07.068Z,175
2018-04-11T06:15:52.472Z,225
2018-04-11T06:17:07.106Z,145
2018-04-11T06:18:07.138Z,140
2018-04-11T06:18:52.242Z,145
2018-04-11T06:19:52.789Z,135
2018-04-11T06:20:52.540Z,130
2018-04-11T06:21:52.829Z,135
2018-04-11T06:22:53.031Z,195
2018-04-11T06:23:52.865Z,255
2018-04-11T06:24:52.895Z,265
2018-04-11T06:25:52.906Z,260
2018-04-11T06:26:52.680Z,235
2018-04-11T06:28:07.485Z,400
2018-04-11T06:28:52.981Z,350
2018-04-11T06:29:52.750Z,395
2018-04-11T06:30:53.025Z,395
2018-04-11T06:31:53.058Z,305
2018-04-11T06:32:52.815Z,410
2018-04-11T06:33:53.263Z,440
2018-04-11T06:35:07.582Z,470
2018-04-11T06:35:52.884Z,470
2018-04-11T06:36:53.169Z,435
2018-04-11T06:39:07.630Z,480
2018-04-11T06:39:53.245Z,500
2018-04-11T06:40:53.284Z,525
2018-04-11T06:41:53.043Z,560
2018-04-11T06:42:53.334Z,840
2018-04-11T06:44:07.490Z,1275
2018-04-11T06:44:52.866Z,1175
2018-04-11T06:45:53.404Z,985
2018-04-11T06:46:53.177Z,960
2018-04-11T06:47:53.486Z,930
2018-04-11T06:49:07.626Z,880
2018-04-11T06:49:53.518Z,810
2018-04-11T06:50:53.538Z,805
2018-04-11T06:51:53.569Z,900
2018-04-11T06:52:53.078Z,915
2018-04-11T06:53:53.621Z,865
2018-04-11T06:54:53.664Z,870
2018-04-11T06:55:53.696Z,860
2018-04-11T06:57:53.742Z,835
2018-04-11T06:59:08.173Z,850
2018-04-11T07:00:08.196Z,825
2018-04-11T07:00:53.828Z,865
2018-04-11T07:01:53.073Z,890
2018-04-11T07:02:53.893Z,845
2018-04-11T07:03:53.914Z,875
2018-04-11T07:04:53.687Z,845
2018-04-11T07:05:53.709Z,925
2018-04-11T07:06:54.008Z,895
2018-04-11T07:07:53.509Z,885
2018-04-11T07:08:54.054Z,865
2018-04-11T07:09:54.097Z,825
2018-04-11T07:10:54.126Z,860
2018-04-11T07:11:54.148Z,875
2018-04-11T07:13:08.834Z,915
2018-04-11T07:13:53.949Z,910
2018-04-11T07:14:53.975Z,930
2018-04-11T07:15:53.747Z,975
2018-04-11T07:16:54.303Z,965
2018-04-11T07:17:54.324Z,930
2018-04-11T07:19:09.018Z,960
2018-04-11T07:20:09.046Z,995
2018-04-11T07:21:09.078Z,945
2018-04-11T07:22:09.103Z,910
2018-04-11T07:22:54.214Z,885
2018-04-11T07:23:54.244Z,865
2018-04-11T07:24:54.277Z,880
2018-04-11T07:26:09.303Z,835
2018-04-11T07:27:09.261Z,835
2018-04-11T07:27:54.632Z,845
2018-04-11T07:28:54.444Z,840
2018-04-11T07:29:54.442Z,825
2018-04-11T07:31:08.859Z,820
2018-04-11T07:31:54.503Z,830
2018-04-11T07:32:54.265Z,870
2018-04-11T07:33:54.884Z,860
2018-04-11T07:35:54.613Z,835
2018-04-11T07:37:09.570Z,815
2018-04-11T07:38:09.334Z,825
2018-04-11T07:38:54.703Z,835
2018-04-11T07:40:09.521Z,840
2018-04-11T07:40:55.029Z,840
2018-04-11T07:41:55.057Z,850
2018-04-11T07:42:55.088Z,855
2018-04-11T07:43:54.862Z,840
2018-04-11T07:45:09.557Z,850
2018-04-11T07:46:09.824Z,855
2018-04-11T07:47:09.879Z,860
2018-04-11T07:47:54.988Z,870
2018-04-11T07:49:55.074Z,820
2018-04-11T07:50:54.834Z,825
2018-04-11T07:51:55.128Z,835
2018-04-11T07:52:54.908Z,800
2018-04-11T07:54:09.589Z,780
2018-04-11T07:54:55.492Z,765
2018-04-11T07:55:55.501Z,745
2018-04-11T07:57:09.927Z,745
2018-04-11T07:57:55.569Z,750
2018-04-11T07:59:10.252Z,740
2018-04-11T07:59:55.165Z,720
2018-04-11T08:00:55.396Z,720
2018-04-11T08:02:10.343Z,690
2018-04-11T08:03:25.203Z,695
2018-04-11T08:03:55.743Z,695
2018-04-11T08:04:55.797Z,670
2018-04-11T08:05:55.817Z,660
2018-04-11T08:06:55.847Z,665
2018-04-11T08:07:55.876Z,660
2018-04-11T08:08:55.667Z,645
2018-04-11T08:10:10.342Z,615
2018-04-11T08:10:55.450Z,625
2018-04-11T08:11:55.746Z,575
2018-04-11T08:12:55.781Z,615
2018-04-11T08:13:56.061Z,595
2018-04-11T08:14:56.113Z,580
2018-04-11T08:16:10.784Z,575
2018-04-11T08:16:56.151Z,580
2018-04-11T08:18:10.588Z,570
2018-04-11T08:19:10.618Z,570
2018-04-11T08:19:56.253Z,560
2018-04-11T08:20:56.276Z,555
2018-04-11T08:21:56.318Z,550
2018-04-11T08:23:11.027Z,535
2018-04-11T08:23:56.381Z,525
2018-04-11T08:24:55.884Z,525
2018-04-11T08:25:56.431Z,510
2018-04-11T08:26:56.206Z,515
2018-04-11T08:27:56.499Z,510
2018-04-11T08:28:56.268Z,495
2018-04-11T08:29:56.697Z,500
2018-04-11T08:31:56.618Z,475
2018-04-11T08:32:56.655Z,485
2018-04-11T08:34:26.003Z,475
2018-04-11T08:34:56.466Z,470
2018-04-11T08:35:56.490Z,465
2018-04-11T08:36:56.521Z,475
2018-04-11T08:37:56.289Z,470
2018-04-11T08:38:56.593Z,475
2018-04-11T08:40:56.378Z,470
2018-04-11T08:41:56.931Z,475
2018-04-11T08:42:56.965Z,470
2018-04-11T08:43:56.839Z,465
2018-04-11T08:44:57.024Z,460
2018-04-11T08:45:56.531Z,455
2018-04-11T08:46:56.821Z,455
2018-04-11T08:47:56.856Z,450
2018-04-11T08:48:57.199Z,460
2018-04-11T08:49:56.662Z,455
2018-04-11T08:50:57.204Z,455
2018-04-11T08:51:56.765Z,460
2018-04-11T08:52:57.266Z,445
2018-04-11T08:54:12.156Z,455
2018-04-11T08:55:57.372Z,450
2018-04-11T08:56:57.390Z,445
2018-04-11T08:58:12.073Z,440
2018-04-11T08:58:57.204Z,440
2018-04-11T08:59:57.214Z,425
2018-04-11T09:01:57.542Z,425
2018-04-11T09:02:57.051Z,430
2018-04-11T09:04:12.271Z,415
2018-04-11T09:04:57.622Z,400
2018-04-11T09:06:11.806Z,380
2018-04-11T09:06:57.791Z,370
2018-04-11T09:07:57.718Z,355
2018-04-11T09:08:57.497Z,335
2018-04-11T09:09:57.770Z,335
2018-04-11T09:10:57.807Z,330
2018-04-11T09:11:57.594Z,335
2018-04-11T09:12:57.610Z,325
2018-04-11T09:13:57.907Z,325
2018-04-11T09:14:57.923Z,325
2018-04-11T09:15:57.972Z,325
2018-04-11T09:17:12.649Z,325
2018-04-11T09:17:58.016Z,320
2018-04-11T09:18:57.786Z,315
2018-04-11T09:20:12.477Z,320
2018-04-11T09:20:58.230Z,310
2018-04-11T09:22:12.540Z,320
2018-04-11T09:22:58.172Z,305
2018-04-11T09:23:57.980Z,315
2018-04-11T09:25:12.892Z,325
2018-04-11T09:26:12.726Z,315
2018-04-11T09:26:58.281Z,315
2018-04-11T09:27:58.312Z,315
2018-04-11T09:28:58.358Z,320
2018-04-11T09:29:57.857Z,310
2018-04-11T09:30:58.142Z,305
2018-04-11T09:31:58.969Z,300
2018-04-11T09:33:13.132Z,300
2018-04-11T09:33:57.973Z,310
2018-04-11T09:34:58.260Z,305
2018-04-11T09:35:57.773Z,300
2018-04-11T09:36:58.061Z,290
2018-04-11T09:38:13.282Z,300
2018-04-11T09:39:58.676Z,295
2018-04-11T09:40:58.438Z,310
2018-04-11T09:41:58.793Z,290
2018-04-11T09:43:13.429Z,305
2018-04-11T09:44:13.199Z,290
2018-04-11T09:45:13.477Z,295
2018-04-11T09:45:58.845Z,295
2018-04-11T09:46:58.885Z,290
2018-04-11T09:47:58.917Z,280
2018-04-11T09:49:58.963Z,285
2018-04-11T09:50:58.991Z,280
2018-04-11T09:52:13.712Z,285
2018-04-11T09:53:13.452Z,280
2018-04-11T09:54:28.145Z,285
2018-04-11T09:55:13.250Z,285
2018-04-11T09:55:59.145Z,285
2018-04-11T09:56:59.166Z,275
2018-04-11T09:58:13.865Z,275
2018-04-11T09:58:59.221Z,270
2018-04-11T09:59:59.003Z,275
2018-04-11T10:00:59.024Z,265
2018-04-11T10:01:59.050Z,270
2018-04-11T10:03:13.743Z,280
2018-04-11T10:03:59.103Z,275
2018-04-11T10:05:14.061Z,275
2018-04-11T10:05:59.167Z,275
2018-04-11T10:06:59.100Z,275
2018-04-11T10:07:59.492Z,275
2018-04-11T10:09:28.830Z,270
2018-04-11T10:09:59.548Z,275
2018-04-11T10:10:59.574Z,280
2018-04-11T10:11:59.598Z,280
2018-04-11T10:12:59.632Z,275
2018-04-11T10:13:59.654Z,270
2018-04-11T10:14:59.684Z,265
2018-04-11T10:15:59.717Z,260
2018-04-11T10:16:58.960Z,260
2018-04-11T10:18:14.422Z,255
2018-04-11T10:18:59.537Z,255
2018-04-11T10:19:59.304Z,260
2018-04-11T10:20:59.591Z,255
2018-04-11T10:21:59.359Z,245
2018-04-11T10:23:14.580Z,255
2018-04-11T10:24:14.595Z,235
2018-04-11T10:24:59.506Z,240
2018-04-11T10:25:59.732Z,240
2018-04-11T10:27:14.421Z,245
2018-04-11T10:27:59.792Z,240
2018-04-11T10:29:00.095Z,225
2018-04-11T10:30:00.102Z,245
2018-04-11T10:30:59.885Z,245
2018-04-11T10:32:00.179Z,240
2018-04-11T10:33:14.589Z,240
2018-04-11T10:34:00.219Z,245
2018-04-11T10:35:00.249Z,235
2018-04-11T10:36:00.272Z,230
2018-04-11T10:37:00.042Z,225
2018-04-11T10:38:00.069Z,220
2018-04-11T10:39:00.353Z,220
2018-04-11T10:40:00.130Z,140
2018-04-11T10:41:29.470Z,225
2018-04-11T10:42:14.835Z,220
2018-04-11T10:43:00.216Z,215
2018-04-11T10:44:14.899Z,215
2018-04-11T10:45:00.521Z,220
2018-04-11T10:46:00.549Z,145
2018-04-11T10:47:00.058Z,215
2018-04-11T10:48:00.338Z,215
2018-04-11T10:49:15.296Z,210
2018-04-11T10:50:15.335Z,215
2018-04-11T10:51:00.424Z,215
2018-04-11T10:52:00.714Z,215
2018-04-11T10:53:00.472Z,215
2018-04-11T10:54:00.501Z,210
2018-04-11T10:55:00.533Z,210
2018-04-11T10:56:15.474Z,215
2018-04-11T10:58:15.267Z,215
2018-04-11T10:59:00.892Z,210
2018-04-11T11:00:00.403Z,200
2018-04-11T11:01:01.116Z,200
2018-04-11T11:02:00.458Z,200
2018-04-11T11:03:01.011Z,200
2018-04-11T11:04:00.769Z,195
2018-04-11T11:05:01.052Z,170
2018-04-11T11:06:15.806Z,185
2018-04-11T11:07:15.768Z,180
2018-04-11T11:08:01.350Z,175
2018-04-11T11:09:15.821Z,170
2018-04-11T11:10:01.190Z,180
2018-04-11T11:11:01.222Z,180
2018-04-11T11:12:15.898Z,175
2018-04-11T11:13:30.583Z,170
2018-04-11T11:14:01.290Z,170
2018-04-11T11:15:01.318Z,165
2018-04-11T11:16:01.080Z,170
2018-04-11T11:17:01.371Z,170
2018-04-11T11:18:01.398Z,170
2018-04-11T11:19:01.182Z,170
2018-04-11T11:20:15.849Z,170
2018-04-11T11:21:01.476Z,170
2018-04-11T11:22:01.500Z,170
2018-04-11T11:23:01.341Z,170
2018-04-11T11:24:15.944Z,155
2018-04-11T11:25:01.311Z,115
2018-04-11T11:26:16.259Z,110
2018-04-11T11:27:01.380Z,110
2018-04-11T11:28:01.397Z,115
2018-04-11T11:29:30.994Z,120
2018-04-11T11:30:01.703Z,130
2018-04-11T11:31:01.726Z,160
2018-04-11T11:32:01.757Z,160
2018-04-11T11:33:01.776Z,160
2018-04-11T11:34:01.818Z,135
2018-04-11T11:35:01.573Z,155
2018-04-11T11:36:16.510Z,135
2018-04-11T11:37:16.539Z,120
2018-04-11T11:38:01.671Z,120
2018-04-11T11:39:16.081Z,120
2018-04-11T11:40:01.699Z,120
2018-04-11T11:41:01.978Z,120
2018-04-11T11:42:16.715Z,115
2018-04-11T11:43:01.513Z,125
2018-04-11T11:44:31.118Z,160
2018-04-11T11:45:02.090Z,150
2018-04-11T11:46:02.018Z,155
2018-04-11T11:47:01.881Z,160
2018-04-11T11:48:02.163Z,160
2018-04-11T11:49:01.932Z,160
2018-04-11T11:50:01.689Z,160
2018-04-11T11:51:16.906Z,150
2018-04-11T11:52:02.341Z,120
2018-04-11T11:53:02.286Z,140
2018-04-11T11:54:02.050Z,150
2018-04-11T11:55:02.159Z,150
2018-04-11T11:56:02.116Z,150
2018-04-11T11:57:17.069Z,155
2018-04-11T11:58:02.425Z,145
2018-04-11T11:59:02.183Z,155
2018-04-11T12:00:01.947Z,150
2018-04-11T12:01:02.494Z,155
2018-04-11T12:02:16.978Z,145
2018-04-11T12:03:02.030Z,150
2018-04-11T12:04:02.559Z,150
2018-04-11T12:05:02.511Z,150
2018-04-11T12:06:02.625Z,155
2018-04-11T12:07:02.638Z,150
2018-04-11T12:08:02.675Z,150
2018-04-11T12:09:02.690Z,150
2018-04-11T12:11:02.223Z,155
2018-04-11T12:12:17.588Z,155
2018-04-11T12:13:02.790Z,155
2018-04-11T12:14:17.492Z,155
2018-04-11T12:15:17.501Z,155
2018-04-11T12:16:17.530Z,155
2018-04-11T12:17:17.558Z,155
2018-04-11T12:18:02.920Z,150
2018-04-11T12:19:02.988Z,150
2018-04-11T12:20:17.365Z,150
2018-04-11T12:21:02.741Z,150
2018-04-11T12:22:02.503Z,150
2018-04-11T12:23:17.445Z,155
2018-04-11T12:24:02.549Z,120
2018-04-11T12:25:03.106Z,150
2018-04-11T12:26:03.123Z,155
2018-04-11T12:27:03.154Z,155
2018-04-11T12:28:17.831Z,155
2018-04-11T12:29:03.201Z,155
2018-04-11T12:30:17.881Z,155
2018-04-11T12:31:17.904Z,155
2018-04-11T12:32:32.590Z,155
2018-04-11T12:33:03.302Z,150
2018-04-11T12:34:03.058Z,150
2018-04-11T12:36:03.378Z,150
2018-04-11T12:37:03.397Z,150
2018-04-11T12:38:03.165Z,155
2018-04-11T12:39:17.845Z,150
2018-04-11T12:40:03.215Z,150
2018-04-11T12:41:18.156Z,150
2018-04-11T12:42:03.519Z,150
2018-04-11T12:43:03.545Z,150
2018-04-11T12:44:03.569Z,150
2018-04-11T12:45:03.600Z,150
2018-04-11T12:46:18.279Z,150
2018-04-11T12:47:18.048Z,150
2018-04-11T12:48:32.988Z,155
2018-04-11T12:49:03.701Z,155
2018-04-11T12:50:03.204Z,155
2018-04-11T12:51:18.409Z,150
2018-04-11T12:52:03.773Z,150
2018-04-11T12:53:03.280Z,150
2018-04-11T12:54:03.567Z,150
2018-04-11T12:55:03.644Z,150
2018-04-11T12:57:03.641Z,150
2018-04-11T12:58:18.589Z,150
2018-04-11T12:59:03.685Z,150
2018-04-11T13:00:03.724Z,150
2018-04-11T13:01:03.737Z,125
2018-04-11T13:02:03.766Z,150
2018-04-11T13:03:18.447Z,155
2018-04-11T13:04:18.783Z,155
2018-04-11T13:05:03.631Z,150
2018-04-11T13:06:04.124Z,150
2018-04-11T13:08:03.912Z,160
2018-04-11T13:09:03.680Z,160
2018-04-11T13:10:04.222Z,155
2018-04-11T13:11:18.923Z,150
2018-04-11T13:12:04.012Z,145
2018-04-11T13:13:04.036Z,150
2018-04-11T13:14:04.322Z,145
2018-04-11T13:15:04.475Z,145
2018-04-11T13:16:04.118Z,150
2018-04-11T13:17:04.239Z,150
2018-04-11T13:18:03.971Z,150
2018-04-11T13:19:19.107Z,140
2018-04-11T13:20:18.872Z,140
2018-04-11T13:21:04.248Z,140
2018-04-11T13:22:04.259Z,145
2018-04-11T13:23:04.555Z,145
2018-04-11T13:24:04.317Z,145
2018-04-11T13:25:04.336Z,150
2018-04-11T13:26:04.621Z,150
2018-04-11T13:27:19.311Z,150
2018-04-11T13:28:18.808Z,145
2018-04-11T13:29:04.440Z,150
2018-04-11T13:30:04.721Z,150
2018-04-11T13:31:04.543Z,145
2018-04-11T13:33:04.801Z,145
2018-04-11T13:34:04.817Z,145
2018-04-11T13:36:04.352Z,145
2018-04-11T13:37:19.547Z,150
2018-04-11T13:39:04.956Z,150
2018-04-11T13:40:04.504Z,155
2018-04-11T13:41:05.182Z,150
2018-04-11T13:42:19.673Z,150
2018-04-11T13:43:05.043Z,150
2018-04-11T13:44:04.804Z,150
2018-04-11T13:45:05.108Z,140
2018-04-11T13:46:05.125Z,130
2018-04-11T13:47:05.161Z,130
2018-04-11T13:48:19.826Z,140
2018-04-11T13:49:19.620Z,135
2018-04-11T13:50:04.969Z,140
2018-04-11T13:51:34.558Z,145
2018-04-11T13:52:19.664Z,145
2018-04-11T13:53:05.025Z,145
2018-04-11T13:54:05.055Z,145
2018-04-11T13:55:04.839Z,145
2018-04-11T13:56:05.111Z,145
2018-04-11T13:57:05.136Z,145
2018-04-11T13:58:20.074Z,145
2018-04-11T13:59:05.179Z,145
2018-04-11T14:00:05.215Z,145
2018-04-11T14:01:05.225Z,145
2018-04-11T14:03:05.023Z,140
2018-04-11T14:05:05.599Z,140
2018-04-11T14:06:05.357Z,140
2018-04-11T14:07:20.297Z,140
2018-04-11T14:08:05.667Z,140
2018-04-11T14:09:20.083Z,140
2018-04-11T14:10:05.714Z,145
2018-04-11T14:11:04.955Z,135
2018-04-11T14:12:05.504Z,135
2018-04-11T14:13:20.464Z,135
2018-04-11T14:15:05.321Z,135
2018-04-11T14:16:05.619Z,135
2018-04-11T14:17:20.546Z,135
2018-04-11T14:18:05.400Z,130
2018-04-11T14:19:05.938Z,135
2018-04-11T14:20:05.697Z,135
2018-04-11T14:21:05.465Z,135
2018-04-11T14:22:06.019Z,135
2018-04-11T14:23:35.349Z,135
2018-04-11T14:24:06.076Z,135
2018-04-11T14:25:05.833Z,130
2018-04-11T14:27:05.871Z,130
2018-04-11T14:28:20.561Z,130
2018-04-11T14:29:05.920Z,130
2018-04-11T14:30:20.861Z,130
2018-04-11T14:31:05.973Z,130
2018-04-11T14:32:05.996Z,130
2018-04-11T14:33:06.019Z,135
2018-04-11T14:34:05.786Z,130
2018-04-11T14:35:05.814Z,130
2018-04-11T14:37:06.577Z,125
2018-04-11T14:38:21.059Z,130
2018-04-11T14:39:35.745Z,125
2018-04-11T14:41:05.959Z,130
2018-04-11T14:42:06.516Z,130
2018-04-11T14:43:20.666Z,130
2018-04-11T14:44:06.309Z,125
2018-04-11T14:45:06.578Z,125
2018-04-11T14:46:06.081Z,125
2018-04-11T14:47:06.627Z,125
2018-04-11T14:48:06.391Z,125
2018-04-11T14:49:06.420Z,125
2018-04-11T14:50:06.438Z,125
2018-04-11T14:51:06.482Z,125